Jackson, Mississippi
Current Conditions -  °F | °C
As of 3:53 AM on Tuesday 27 Jan 2015 (Local Time) from KHKS Reporting Station
Clear Clear  
Wind Chill:   Ceiling: Unl
Heat Index:   Visibility: 10mi
Dew Point:   Wind: 6mph
Humidity: 63%   Direction: 280°W
Pressure: 30.02"   Gusts: NA
Location:  32.3°N, 90.18°W
Report Text: KHKS 270953Z AUTO 28005KT 10SM CLR 07/01 A3002 RMK AO2 SLP160 T00720006
Loading
Personal Weather Stations






























Interactive Weather Map New forecast layout! Learn more

10-Day Weather Forecast

Advertisements
Track Severe Weather on mobile